Time;durP1;ratioP1;P1;durP2;ratioP2;P2;SDS_P1;SDS_P2;PMS_P1;PMS_P2;Temp;Humidity;BMP_temperature;BMP_pressure;BME280_temperature;BME280_humidity;BME280_pressure;Samples;Min_cycle;Max_cycle;Signal;HPM_P1;HPM_P2
2022/06/19 00:00:51;;;;;;;13.10;2.50;;;16.30;90.70;;;;;;5070246;28;25161;-62
2022/06/19 00:03:31;;;;;;;6.82;1.83;;;16.20;90.40;;;;;;5059066;28;25103;-61
2022/06/19 00:05:57;;;;;;;8.68;2.25;;;16.20;90.40;;;;;;5060634;28;25072;-61
2022/06/19 00:08:23;;;;;;;12.00;2.45;;;16.20;90.20;;;;;;5053627;28;25086;-61
2022/06/19 00:10:49;;;;;;;11.55;1.98;;;16.20;88.00;;;;;;5062136;28;25057;-59
2022/06/19 00:13:15;;;;;;;6.68;1.90;;;16.10;89.60;;;;;;5041814;28;25046;-59
2022/06/19 00:15:41;;;;;;;12.82;1.77;;;16.10;88.70;;;;;;5056680;28;25068;-60
2022/06/19 00:18:07;;;;;;;9.55;2.05;;;16.20;88.20;;;;;;5058463;28;25064;-61
2022/06/19 00:20:32;;;;;;;9.48;2.08;;;16.20;87.30;;;;;;5055345;28;25071;-61
2022/06/19 00:22:58;;;;;;;8.77;2.03;;;16.10;85.90;;;;;;5055305;28;25135;-59
2022/06/19 00:25:23;;;;;;;8.27;1.75;;;16.10;86.60;;;;;;5054679;28;25137;-60
2022/06/19 00:27:49;;;;;;;10.50;2.55;;;16.10;89.10;;;;;;5063381;28;25051;-61
2022/06/19 00:30:15;;;;;;;9.05;2.33;;;16.10;89.00;;;;;;5070953;28;25048;-58
2022/06/19 00:32:40;;;;;;;7.15;2.03;;;16.10;91.10;;;;;;5056521;28;25071;-58
2022/06/19 00:35:06;;;;;;;5.80;1.75;;;16.10;92.80;;;;;;5061472;28;25064;-60
2022/06/19 00:37:34;;;;;;;8.63;2.00;;;16.10;93.60;;;;;;5061767;28;25065;-59
2022/06/19 00:40:00;;;;;;;14.13;2.50;;;16.00;99.90;;;;;;5065509;28;25063;-61
2022/06/19 00:42:26;;;;;;;17.90;3.17;;;16.10;99.90;;;;;;5055612;28;25063;-60
2022/06/19 00:44:52;;;;;;;15.40;2.85;;;16.10;99.90;;;;;;5069560;28;25076;-59
2022/06/19 00:47:21;;;;;;;14.98;3.22;;;15.90;99.90;;;;;;5067053;28;25146;-59
2022/06/19 00:49:56;;;;;;;15.10;2.60;;;15.90;99.90;;;;;;5064825;28;25055;-60
2022/06/19 00:52:36;;;;;;;13.23;2.40;;;16.00;99.90;;;;;;5071604;28;25514;-61
2022/06/19 00:55:16;;;;;;;11.20;2.58;;;16.10;99.90;;;;;;5062141;28;25132;-60
2022/06/19 00:57:46;;;;;;;11.50;2.42;;;16.10;99.90;;;;;;5056183;28;25054;-60
2022/06/19 01:00:26;;;;;;;8.95;1.85;;;16.00;99.90;;;;;;5070019;28;25076;-59
2022/06/19 01:02:55;;;;;;;10.95;2.35;;;16.10;99.90;;;;;;5057370;28;25141;-59
2022/06/19 01:05:23;;;;;;;11.65;2.17;;;16.00;99.90;;;;;;5065845;28;25151;-60
2022/06/19 01:07:49;;;;;;;14.70;2.45;;;16.10;99.90;;;;;;5070039;28;25052;-60
2022/06/19 01:10:14;;;;;;;11.90;1.75;;;16.10;99.90;;;;;;5068829;28;25079;-61
2022/06/19 01:12:46;;;;;;;10.63;1.85;;;16.20;99.90;;;;;;5070793;28;25090;-61
2022/06/19 01:15:15;;;;;;;11.70;2.20;;;16.10;99.90;;;;;;5062631;28;25050;-59
2022/06/19 01:17:41;;;;;;;8.52;1.88;;;16.10;99.90;;;;;;5059591;28;25109;-59
2022/06/19 01:20:11;;;;;;;6.95;1.90;;;16.10;99.90;;;;;;5062756;28;25061;-61
2022/06/19 01:23:12;;;;;;;10.77;2.30;;;16.00;99.90;;;;;;5065591;28;25074;-61
2022/06/19 01:25:40;;;;;;;9.15;2.40;;;16.00;99.90;;;;;;5063944;28;25058;-60
2022/06/19 01:30:58;;;;;;;11.68;2.58;;;15.80;99.90;;;;;;5067672;28;25136;-60
2022/06/19 01:33:32;;;;;;;9.05;1.80;;;15.80;99.90;;;;;;5056339;28;25172;-59
2022/06/19 01:36:00;;;;;;;18.27;2.03;;;15.70;99.90;;;;;;5062647;28;25159;-60
2022/06/19 01:38:26;;;;;;;9.27;1.60;;;15.70;99.90;;;;;;5052931;28;25075;-60
2022/06/19 01:40:59;;;;;;;10.18;1.75;;;15.70;99.90;;;;;;5061131;28;25054;-60
2022/06/19 01:43:25;;;;;;;8.57;1.88;;;15.70;99.90;;;;;;5041899;28;25094;-61
2022/06/19 01:45:53;;;;;;;8.82;1.45;;;15.60;95.10;;;;;;5054758;28;25079;-60
2022/06/19 01:48:22;;;;;;;5.10;1.40;;;15.70;93.50;;;;;;5058601;28;25074;-60
2022/06/19 01:50:49;;;;;;;17.90;1.95;;;15.70;91.00;;;;;;5056827;28;25081;-60
2022/06/19 01:53:24;;;;;;;13.35;1.85;;;15.70;90.20;;;;;;5052521;28;25100;-60
2022/06/19 01:55:51;;;;;;;5.90;1.40;;;15.70;88.30;;;;;;5056634;28;25074;-60
2022/06/19 01:58:18;;;;;;;8.63;1.50;;;15.60;86.30;;;;;;5066613;28;25086;-60
2022/06/19 02:00:45;;;;;;;9.43;1.67;;;15.50;86.50;;;;;;5060956;28;25054;-60
2022/06/19 02:03:28;;;;;;;12.30;2.20;;;15.60;85.90;;;;;;5033700;28;25086;-60
2022/06/19 02:05:54;;;;;;;;;;;15.60;85.70;;;;;;5062699;28;25079;-60
2022/06/19 02:08:20;;;;;;;4.07;1.38;;;15.60;87.40;;;;;;5060860;28;25138;-60
2022/06/19 02:10:46;;;;;;;3.63;0.88;;;15.50;90.30;;;;;;5059744;28;25076;-61
2022/06/19 02:13:14;;;;;;;5.15;1.35;;;15.50;93.00;;;;;;5060729;28;25098;-59
2022/06/19 02:15:42;;;;;;;7.20;1.58;;;15.50;94.30;;;;;;5056125;28;25066;-59
2022/06/19 02:18:11;;;;;;;9.70;1.50;;;15.40;95.80;;;;;;5059557;28;25044;-59
2022/06/19 02:20:37;;;;;;;7.13;1.75;;;15.50;97.70;;;;;;5061967;28;25056;-59
2022/06/19 02:23:05;;;;;;;5.97;1.90;;;15.40;99.70;;;;;;5057436;28;25054;-59
2022/06/19 02:25:31;;;;;;;8.45;1.70;;;15.40;99.90;;;;;;5058065;28;25057;-60
2022/06/19 02:27:57;;;;;;;12.90;2.40;;;15.40;99.90;;;;;;5060618;28;25113;-59
2022/06/19 02:30:23;;;;;;;19.15;2.67;;;15.40;99.90;;;;;;5076451;28;25067;-59
2022/06/19 02:32:51;;;;;;;9.30;2.53;;;15.50;99.90;;;;;;5060853;28;25076;-61
2022/06/19 02:35:20;;;;;;;15.00;2.33;;;15.50;99.90;;;;;;5050161;28;25081;-60
2022/06/19 02:37:52;;;;;;;15.25;3.13;;;15.40;99.90;;;;;;5066369;28;25067;-59
2022/06/19 02:40:33;;;;;;;13.82;2.25;;;15.40;99.90;;;;;;5057255;28;25132;-60
2022/06/19 02:42:58;;;;;;;16.45;2.88;;;15.40;99.90;;;;;;5061338;28;25076;-59
2022/06/19 02:45:29;;;;;;;12.60;2.35;;;15.30;99.90;;;;;;5065710;28;25091;-59
2022/06/19 02:47:57;;;;;;;12.10;2.40;;;15.30;99.90;;;;;;5058547;28;25046;-60
2022/06/19 02:50:26;;;;;;;15.88;2.53;;;15.30;99.90;;;;;;5046430;28;25061;-59
2022/06/19 02:52:52;;;;;;;12.65;2.33;;;15.30;99.90;;;;;;5056311;28;25118;-61
2022/06/19 02:55:19;;;;;;;17.30;2.53;;;15.30;99.90;;;;;;5058147;28;25099;-58
2022/06/19 02:57:45;;;;;;;14.13;2.53;;;15.30;99.90;;;;;;5063206;28;25068;-60
2022/06/19 03:00:18;;;;;;;10.63;2.35;;;15.20;99.90;;;;;;5059866;28;25087;-60
2022/06/19 03:02:45;;;;;;;15.35;2.85;;;15.30;99.90;;;;;;5067869;28;25057;-59
2022/06/19 03:05:18;;;;;;;21.98;3.22;;;15.30;99.90;;;;;;5050425;28;25055;-60
2022/06/19 03:07:44;;;;;;;11.38;2.47;;;15.30;99.90;;;;;;5061619;28;25056;-59
2022/06/19 03:10:10;;;;;;;17.17;2.53;;;15.20;99.90;;;;;;5062210;28;25055;-60
2022/06/19 03:12:35;;;;;;;15.45;2.70;;;15.20;99.90;;;;;;5058527;28;25076;-59
2022/06/19 03:15:01;;;;;;;16.73;2.78;;;15.20;99.90;;;;;;5061618;28;25137;-60
2022/06/19 03:17:26;;;;;;;15.18;2.72;;;15.30;99.90;;;;;;5057785;28;25069;-59
2022/06/19 03:19:53;;;;;;;13.32;2.70;;;15.30;99.90;;;;;;5066079;28;25062;-60
2022/06/19 03:22:19;;;;;;;17.25;2.35;;;15.40;99.90;;;;;;5064648;28;25231;-60
2022/06/19 03:24:44;;;;;;;15.35;2.72;;;15.30;99.90;;;;;;5059744;28;25113;-60
2022/06/19 03:27:12;;;;;;;12.18;2.90;;;15.40;99.90;;;;;;5064745;28;25133;-64
2022/06/19 03:29:38;;;;;;;14.00;2.63;;;15.40;99.90;;;;;;5066035;28;25078;-60
2022/06/19 03:32:04;;;;;;;14.15;2.40;;;15.40;99.90;;;;;;5061249;28;25079;-60
2022/06/19 03:34:31;;;;;;;14.85;2.42;;;15.40;99.90;;;;;;5065090;28;25057;-60
2022/06/19 03:36:57;;;;;;;20.90;2.78;;;15.40;99.90;;;;;;5065818;28;25053;-59
2022/06/19 03:39:22;;;;;;;12.52;2.97;;;15.40;99.90;;;;;;5058457;28;25134;-60
2022/06/19 03:41:48;;;;;;;15.02;4.00;;;15.50;99.90;;;;;;5056796;28;25204;-60
2022/06/19 03:44:13;;;;;;;19.55;3.47;;;15.50;99.90;;;;;;5052136;28;25147;-60
2022/06/19 03:46:40;;;;;;;15.05;2.97;;;15.50;99.90;;;;;;5062550;28;26201;-59
2022/06/19 03:49:05;;;;;;;20.25;2.67;;;15.50;99.90;;;;;;5067110;28;25070;-61
2022/06/19 03:51:31;;;;;;;19.15;2.83;;;15.50;99.90;;;;;;5056307;28;25080;-60
2022/06/19 03:53:57;;;;;;;15.90;3.13;;;15.50;99.90;;;;;;5065748;28;25094;-60
2022/06/19 03:56:31;;;;;;;23.50;3.38;;;15.40;99.90;;;;;;5062534;28;25057;-60
2022/06/19 03:58:58;;;;;;;25.15;3.03;;;15.20;99.90;;;;;;5058881;28;25170;-61
2022/06/19 04:01:31;;;;;;;24.25;3.88;;;14.90;99.90;;;;;;5063255;28;25160;-60
2022/06/19 04:03:57;;;;;;;19.27;3.33;;;14.80;99.90;;;;;;5068648;28;25067;-60
2022/06/19 04:06:25;;;;;;;17.77;3.40;;;14.70;99.90;;;;;;5060619;28;25135;-60
2022/06/19 04:08:51;;;;;;;12.32;3.10;;;14.70;99.90;;;;;;5050612;28;25067;-61
2022/06/19 04:11:18;;;;;;;12.48;2.75;;;14.60;99.90;;;;;;5054878;28;25050;-60
2022/06/19 04:13:44;;;;;;;17.63;2.67;;;14.80;99.90;;;;;;5059733;28;25078;-60
2022/06/19 04:16:16;;;;;;;16.33;2.78;;;14.80;99.90;;;;;;5056760;28;25078;-59
2022/06/19 04:18:41;;;;;;;12.00;2.47;;;14.80;99.90;;;;;;5066312;28;25083;-59
2022/06/19 04:21:15;;;;;;;13.63;2.47;;;14.70;99.90;;;;;;5066202;28;25082;-60
2022/06/19 04:23:42;;;;;;;13.38;2.72;;;14.80;99.90;;;;;;5058674;28;25070;-60
2022/06/19 04:26:09;;;;;;;14.40;2.58;;;14.80;99.90;;;;;;5040792;28;25084;-60
2022/06/19 04:28:35;;;;;;;10.02;2.22;;;14.80;99.90;;;;;;5050501;28;25088;-59
2022/06/19 04:31:01;;;;;;;13.18;2.60;;;14.90;99.90;;;;;;5063529;28;25174;-59
2022/06/19 04:33:26;;;;;;;8.85;2.25;;;14.90;99.90;;;;;;5067751;28;25077;-60
2022/06/19 04:35:52;;;;;;;16.40;1.90;;;15.00;99.90;;;;;;5058870;28;25090;-59
2022/06/19 04:38:17;;;;;;;12.63;2.63;;;15.00;99.90;;;;;;5062151;28;25160;-60
2022/06/19 04:40:44;;;;;;;12.00;2.20;;;15.00;99.90;;;;;;5059322;28;25142;-59
2022/06/19 04:43:11;;;;;;;12.00;2.60;;;15.00;99.90;;;;;;5050655;28;25081;-59
2022/06/19 04:45:38;;;;;;;13.80;2.25;;;15.00;99.90;;;;;;5057476;28;25143;-59
2022/06/19 04:48:07;;;;;;;8.43;2.20;;;15.00;99.90;;;;;;5056121;28;25078;-59
2022/06/19 04:50:32;;;;;;;20.27;2.67;;;15.10;99.90;;;;;;5050960;28;25056;-59
2022/06/19 04:52:58;;;;;;;15.00;2.47;;;15.10;99.90;;;;;;5057116;28;25074;-59
2022/06/19 04:55:23;;;;;;;14.20;2.03;;;15.20;99.90;;;;;;5055301;28;25077;-60
2022/06/19 04:57:49;;;;;;;12.95;2.38;;;15.30;99.90;;;;;;5055575;28;25082;-60
2022/06/19 05:00:17;;;;;;;16.70;2.80;;;15.30;99.90;;;;;;5054729;28;25098;-60
2022/06/19 05:02:43;;;;;;;16.88;2.72;;;15.30;99.90;;;;;;5053788;28;25128;-61
2022/06/19 05:05:15;;;;;;;13.57;2.60;;;15.40;99.90;;;;;;5052903;28;25072;-60
2022/06/19 05:07:41;;;;;;;9.95;2.42;;;15.30;99.90;;;;;;5058528;28;25146;-61
2022/06/19 05:10:08;;;;;;;10.55;3.05;;;15.20;99.90;;;;;;5053642;28;25164;-61
2022/06/19 05:12:33;;;;;;;14.43;3.28;;;15.10;99.90;;;;;;5051880;28;25071;-60
2022/06/19 05:14:59;;;;;;;12.35;2.70;;;15.10;99.90;;;;;;5049766;28;25137;-60
2022/06/19 05:17:24;;;;;;;10.70;2.45;;;15.00;99.90;;;;;;5049285;28;25053;-60
2022/06/19 05:19:50;;;;;;;15.05;3.53;;;15.00;99.90;;;;;;5057094;28;25066;-61
2022/06/19 05:22:15;;;;;;;18.00;2.88;;;14.90;99.90;;;;;;5053111;28;25115;-60
2022/06/19 05:24:41;;;;;;;20.55;3.75;;;14.80;99.90;;;;;;5047766;28;25108;-60
2022/06/19 05:27:11;;;;;;;17.50;4.53;;;14.80;99.90;;;;;;5051859;28;25162;-61
2022/06/19 05:29:40;;;;;;;14.18;2.90;;;14.50;99.90;;;;;;5054047;28;25067;-59
2022/06/19 05:32:06;;;;;;;14.35;2.92;;;14.40;99.90;;;;;;5051216;28;25104;-60
2022/06/19 05:34:34;;;;;;;15.07;3.65;;;14.40;99.90;;;;;;5048905;28;25061;-60
2022/06/19 05:37:00;;;;;;;13.82;3.35;;;14.40;99.90;;;;;;5052155;28;25065;-59
2022/06/19 05:39:25;;;;;;;15.30;3.60;;;14.20;99.90;;;;;;5057115;28;25101;-60
2022/06/19 05:41:52;;;;;;;13.32;3.05;;;14.30;99.90;;;;;;5056006;28;25105;-61
2022/06/19 05:44:18;;;;;;;24.50;4.80;;;14.20;99.90;;;;;;5062034;28;25109;-60
2022/06/19 05:46:46;;;;;;;16.98;3.55;;;14.10;99.90;;;;;;5058753;28;25063;-60
2022/06/19 05:49:12;;;;;;;19.75;3.67;;;14.00;99.90;;;;;;5071758;28;25070;-60
2022/06/19 05:51:37;;;;;;;20.65;3.67;;;13.80;99.90;;;;;;5059686;28;25071;-59
2022/06/19 05:54:03;;;;;;;20.08;3.83;;;13.70;99.90;;;;;;5064908;28;25122;-59
2022/06/19 05:56:29;;;;;;;20.15;3.67;;;13.80;99.90;;;;;;5063362;28;25165;-59
2022/06/19 05:58:55;;;;;;;22.85;3.80;;;13.80;99.90;;;;;;5061900;28;25142;-60
2022/06/19 06:01:21;;;;;;;16.40;3.78;;;13.70;99.90;;;;;;5056000;28;25058;-60
2022/06/19 06:03:48;;;;;;;20.65;4.20;;;13.60;99.90;;;;;;5058946;28;25101;-58
2022/06/19 06:06:23;;;;;;;12.32;3.20;;;13.60;99.90;;;;;;5058817;28;25109;-60
2022/06/19 06:08:49;;;;;;;18.92;3.78;;;13.50;99.90;;;;;;5053575;28;25052;-60
2022/06/19 06:11:15;;;;;;;19.98;4.35;;;13.50;99.90;;;;;;5057760;28;25155;-60
2022/06/19 06:13:41;;;;;;;19.02;4.05;;;13.60;99.90;;;;;;5054856;28;25089;-60
2022/06/19 06:16:07;;;;;;;19.35;3.38;;;13.50;99.90;;;;;;5064952;28;25164;-59
2022/06/19 06:18:33;;;;;;;17.60;3.60;;;13.50;99.90;;;;;;5057990;28;25049;-58
2022/06/19 06:21:03;;;;;;;14.80;3.50;;;13.60;99.90;;;;;;5062264;28;25113;-60
2022/06/19 06:23:30;;;;;;;16.83;3.58;;;13.50;99.90;;;;;;5061331;28;25125;-57
2022/06/19 06:26:00;;;;;;;17.08;3.33;;;13.60;99.90;;;;;;5057808;28;25056;-58
2022/06/19 06:28:27;;;;;;;22.85;4.05;;;13.50;99.90;;;;;;5061602;28;25095;-59
2022/06/19 06:30:52;;;;;;;23.30;4.30;;;13.70;99.90;;;;;;5057159;28;25076;-60
2022/06/19 06:33:18;;;;;;;22.90;4.28;;;13.60;99.90;;;;;;5066440;28;25075;-60
2022/06/19 06:35:43;;;;;;;18.33;4.60;;;13.50;99.90;;;;;;5063885;28;25074;-59
2022/06/19 06:38:09;;;;;;;16.38;3.58;;;13.60;99.90;;;;;;5057665;28;25080;-59
2022/06/19 06:40:35;;;;;;;19.95;4.32;;;13.50;99.90;;;;;;5065024;28;25066;-60
2022/06/19 06:43:00;;;;;;;13.52;3.78;;;13.50;99.90;;;;;;5059961;28;25062;-60
2022/06/19 06:45:26;;;;;;;15.25;3.63;;;13.60;99.90;;;;;;5066942;28;25057;-59
2022/06/19 06:47:52;;;;;;;14.73;3.50;;;13.70;99.90;;;;;;5046646;28;25112;-60
2022/06/19 06:50:17;;;;;;;20.63;3.58;;;13.60;99.90;;;;;;5066047;28;25067;-60
2022/06/19 06:52:43;;;;;;;15.18;3.33;;;13.60;99.90;;;;;;5065644;28;25167;-60
2022/06/19 06:55:09;;;;;;;18.92;3.88;;;13.60;99.90;;;;;;5068420;28;25071;-59
2022/06/19 06:57:35;;;;;;;17.05;4.20;;;13.70;99.90;;;;;;5063626;28;25076;-59
2022/06/19 07:00:01;;;;;;;15.68;3.63;;;13.90;99.90;;;;;;5056832;28;25056;-59
2022/06/19 07:02:27;;;;;;;21.48;3.88;;;13.90;99.90;;;;;;5052316;28;25133;-59
2022/06/19 07:04:52;;;;;;;13.30;2.75;;;14.00;99.90;;;;;;5061876;28;25064;-59
2022/06/19 07:07:18;;;;;;;16.95;3.80;;;13.90;99.90;;;;;;5061678;28;25067;-58
2022/06/19 07:09:43;;;;;;;20.67;4.20;;;14.10;99.90;;;;;;5055914;28;25106;-59
2022/06/19 07:12:10;;;;;;;16.75;3.63;;;14.00;99.90;;;;;;5054219;28;25067;-59
2022/06/19 07:14:35;;;;;;;19.13;3.50;;;14.10;99.90;;;;;;5049168;28;25079;-59
2022/06/19 07:17:01;;;;;;;17.83;4.15;;;14.10;99.90;;;;;;5052642;28;25121;-59
2022/06/19 07:19:27;;;;;;;18.88;4.05;;;13.90;99.90;;;;;;5047711;28;25119;-58
2022/06/19 07:21:52;;;;;;;12.15;2.90;;;13.70;99.90;;;;;;5049735;28;25067;-58
2022/06/19 07:24:18;;;;;;;18.17;3.47;;;13.60;99.90;;;;;;5048687;28;25050;-58
2022/06/19 07:26:43;;;;;;;16.20;3.05;;;13.70;99.90;;;;;;5054223;28;25074;-58
2022/06/19 07:29:09;;;;;;;16.30;3.15;;;13.60;99.90;;;;;;5032076;28;25138;-60
2022/06/19 07:31:36;;;;;;;12.30;3.25;;;13.60;99.90;;;;;;5035475;28;25131;-60
2022/06/19 07:34:01;;;;;;;18.52;3.25;;;13.70;99.90;;;;;;5058672;28;25118;-58
2022/06/19 07:36:27;;;;;;;18.35;3.80;;;13.80;99.90;;;;;;5072290;28;25144;-57
2022/06/19 07:38:52;;;;;;;20.77;4.38;;;13.80;99.90;;;;;;5064861;28;25072;-59
2022/06/19 07:41:19;;;;;;;17.73;3.78;;;13.80;99.90;;;;;;5062133;28;25057;-59
2022/06/19 07:43:45;;;;;;;11.82;3.15;;;13.70;99.90;;;;;;5057724;28;25075;-60
2022/06/19 07:46:11;;;;;;;17.52;2.63;;;13.80;99.90;;;;;;5069589;28;25095;-60
2022/06/19 07:51:26;;;;;;;11.88;3.42;;;13.70;99.90;;;;;;5071331;28;25069;-58
2022/06/19 07:53:51;;;;;;;12.80;3.05;;;13.70;99.90;;;;;;5065678;28;25101;-62
2022/06/19 07:56:17;;;;;;;13.57;2.70;;;13.70;99.90;;;;;;5061287;28;25098;-59
2022/06/19 07:58:43;;;;;;;21.33;4.15;;;13.70;99.90;;;;;;5072870;28;25058;-60
2022/06/19 08:01:09;;;;;;;12.55;2.92;;;13.70;99.90;;;;;;5067899;28;24856;-60
2022/06/19 08:03:34;;;;;;;15.07;2.90;;;13.80;99.90;;;;;;5059325;28;25057;-59
2022/06/19 08:06:00;;;;;;;16.00;3.22;;;13.80;99.90;;;;;;5060071;28;25073;-60
2022/06/19 08:08:28;;;;;;;15.02;3.40;;;13.70;99.90;;;;;;5058543;28;25088;-60
2022/06/19 08:10:56;;;;;;;13.52;3.92;;;13.80;99.90;;;;;;5047941;28;25079;-61
2022/06/19 08:13:24;;;;;;;15.43;3.33;;;13.80;99.90;;;;;;5060240;28;25126;-60
2022/06/19 08:15:53;;;;;;;14.25;3.08;;;13.90;99.90;;;;;;5054155;28;25060;-61
2022/06/19 08:18:19;;;;;;;13.95;2.78;;;13.70;99.90;;;;;;5056500;28;25061;-59
2022/06/19 08:20:45;;;;;;;22.30;5.13;;;13.80;99.90;;;;;;5052471;28;25104;-59
2022/06/19 08:23:11;;;;;;;13.13;2.75;;;13.70;99.90;;;;;;5048717;28;25102;-60
2022/06/19 08:25:37;;;;;;;19.70;3.58;;;13.70;99.90;;;;;;5054937;28;25132;-59
2022/06/19 08:28:03;;;;;;;12.93;3.33;;;13.60;99.90;;;;;;5051392;28;25174;-60
2022/06/19 08:30:33;;;;;;;13.88;3.05;;;13.60;99.90;;;;;;5052794;28;25108;-59
2022/06/19 08:32:59;;;;;;;17.35;3.55;;;13.60;99.90;;;;;;5050470;28;25086;-59
2022/06/19 08:35:26;;;;;;;19.75;4.03;;;13.60;99.90;;;;;;5058338;28;25143;-60
2022/06/19 08:37:57;;;;;;;14.48;3.08;;;13.70;99.90;;;;;;5052912;28;25173;-58
2022/06/19 08:40:28;;;;;;;19.42;3.17;;;13.90;99.90;;;;;;5053871;28;25081;-58
2022/06/19 08:43:12;;;;;;;16.30;3.95;;;13.90;99.90;;;;;;5048640;28;25101;-60
2022/06/19 08:45:43;;;;;;;9.57;2.65;;;13.70;99.90;;;;;;5052413;28;25070;-60
2022/06/19 08:48:29;;;;;;;15.38;3.25;;;13.80;99.90;;;;;;5053118;28;25051;-61
2022/06/19 08:51:01;;;;;;;21.17;4.10;;;13.90;99.90;;;;;;5052482;28;25145;-58
2022/06/19 08:53:35;;;;;;;17.45;3.70;;;14.10;99.90;;;;;;5044909;28;25059;-59
2022/06/19 08:56:43;;;;;;;14.05;3.72;;;14.10;99.90;;;;;;5051166;28;25063;-60
2022/06/19 08:59:33;;;;;;;19.98;4.22;;;14.30;99.90;;;;;;5057890;28;25121;-60
2022/06/19 09:02:28;;;;;;;22.77;3.83;;;14.30;99.90;;;;;;5034093;28;25044;-61
2022/06/19 09:08:13;;;;;;;18.00;3.75;;;14.50;99.90;;;;;;5053583;28;25055;-59
2022/06/19 09:10:51;;;;;;;13.35;3.85;;;14.50;99.90;;;;;;5052614;28;25104;-60
2022/06/19 09:13:30;;;;;;;13.73;4.60;;;14.60;99.90;;;;;;5049705;28;26169;-60
2022/06/19 09:16:25;;;;;;;17.85;3.30;;;14.70;99.90;;;;;;5049724;28;25531;-60
2022/06/19 09:19:14;;;;;;;11.98;3.50;;;14.80;99.90;;;;;;4961244;28;25134;-59
2022/06/19 09:21:51;;;;;;;18.80;3.50;;;15.20;99.90;;;;;;5042162;28;25140;-59
2022/06/19 09:24:46;;;;;;;17.08;4.50;;;15.40;99.90;;;;;;5046340;28;25078;-59
2022/06/19 09:27:13;;;;;;;11.88;3.45;;;15.30;99.90;;;;;;5047482;28;25066;-58
2022/06/19 09:29:50;;;;;;;14.52;3.22;;;15.60;99.90;;;;;;5049537;28;25073;-58
2022/06/19 09:32:45;;;;;;;13.45;3.45;;;15.40;99.90;;;;;;5051635;28;25070;-58
2022/06/19 09:35:47;;;;;;;18.35;4.15;;;15.70;99.90;;;;;;5042550;28;25076;-59
2022/06/19 09:38:21;;;;;;;20.35;3.55;;;15.90;99.90;;;;;;5031165;28;25172;-59
2022/06/19 09:40:59;;;;;;;11.43;3.03;;;16.00;99.90;;;;;;5055134;28;25058;-59
2022/06/19 09:43:34;;;;;;;11.00;3.08;;;16.10;99.90;;;;;;5046905;28;25079;-58
2022/06/19 09:46:06;;;;;;;16.90;3.28;;;16.00;99.90;;;;;;5044591;28;25096;-60
2022/06/19 09:48:54;;;;;;;11.18;2.88;;;15.90;99.90;;;;;;5052149;28;25087;-58
2022/06/19 09:51:38;;;;;;;10.88;2.40;;;16.10;99.90;;;;;;5050443;28;25065;-59
2022/06/19 09:54:08;;;;;;;13.60;3.22;;;15.90;99.90;;;;;;5057098;28;25106;-60
2022/06/19 09:56:53;;;;;;;19.73;3.40;;;15.70;99.90;;;;;;5062193;28;25054;-59
2022/06/19 09:59:40;;;;;;;9.73;2.63;;;15.50;99.90;;;;;;5055944;28;25061;-59
2022/06/19 10:02:19;;;;;;;8.77;2.72;;;15.50;99.90;;;;;;5060023;28;25067;-59
2022/06/19 10:04:58;;;;;;;9.55;2.60;;;15.50;99.90;;;;;;5054552;28;25049;-59
2022/06/19 10:07:30;;;;;;;9.85;2.47;;;15.70;99.90;;;;;;5050974;28;25060;-59
2022/06/19 10:10:01;;;;;;;19.10;2.97;;;15.70;99.90;;;;;;5056146;28;25124;-58
2022/06/19 10:12:39;;;;;;;11.88;2.78;;;15.60;99.90;;;;;;5049378;28;25085;-59
2022/06/19 10:15:13;;;;;;;9.10;2.30;;;15.60;99.90;;;;;;5046977;28;25060;-59
2022/06/19 10:17:53;;;;;;;13.23;2.47;;;16.00;99.90;;;;;;5049572;28;25062;-59
2022/06/19 10:20:23;;;;;;;9.13;2.33;;;16.00;99.90;;;;;;5051256;28;25064;-57
2022/06/19 10:23:01;;;;;;;11.10;2.63;;;15.90;99.90;;;;;;5050512;28;25180;-58
2022/06/19 10:25:41;;;;;;;9.48;2.53;;;16.00;99.90;;;;;;5054937;28;25072;-59
2022/06/19 10:28:41;;;;;;;9.68;2.72;;;16.00;99.90;;;;;;5053368;28;25061;-58
2022/06/19 10:31:41;;;;;;;12.25;3.10;;;16.20;99.90;;;;;;5054319;28;25099;-59
2022/06/19 10:34:18;;;;;;;17.35;5.38;;;16.10;99.90;;;;;;5053863;28;25063;-58
2022/06/19 10:37:05;;;;;;;10.40;3.35;;;16.10;99.90;;;;;;5053253;28;25152;-60
2022/06/19 10:39:45;;;;;;;11.60;3.10;;;16.10;99.90;;;;;;5052765;28;25063;-60
2022/06/19 10:42:42;;;;;;;15.65;2.47;;;16.40;99.90;;;;;;5054310;28;24808;-57
2022/06/19 10:45:26;;;;;;;13.13;2.90;;;16.40;99.90;;;;;;5054287;28;25192;-60
2022/06/19 10:47:57;;;;;;;11.23;2.60;;;16.50;99.90;;;;;;5059380;28;25082;-59
2022/06/19 10:50:32;;;;;;;11.00;2.58;;;16.70;99.90;;;;;;5037092;28;25150;-59
2022/06/19 10:53:22;;;;;;;15.20;3.70;;;16.50;99.90;;;;;;5056079;28;25162;-59
2022/06/19 10:56:16;;;;;;;17.10;3.88;;;16.10;99.90;;;;;;5056916;28;25078;-59
2022/06/19 10:58:45;;;;;;;14.40;3.00;;;16.10;99.90;;;;;;5055902;28;25097;-60
2022/06/19 11:04:06;;;;;;;12.50;3.30;;;16.30;99.90;;;;;;5054977;28;25061;-58
2022/06/19 11:04:10;;;;;;;17.33;4.63;;;16.10;99.90;;;;;;5057370;28;25095;-59
2022/06/19 11:07:00;;;;;;;11.60;3.03;;;16.00;99.90;;;;;;5057120;28;25090;-59
2022/06/19 11:09:37;;;;;;;12.45;3.72;;;16.00;99.90;;;;;;5051188;28;25061;-57
2022/06/19 11:12:30;;;;;;;21.73;4.13;;;16.10;99.90;;;;;;5055266;28;25107;-59
2022/06/19 11:14:57;;;;;;;;;;;16.10;99.90;;;;;;5013562;28;25073;-61
2022/06/19 11:17:29;;;;;;;8.98;3.05;;;16.30;99.90;;;;;;5056470;28;25132;-59
2022/06/19 11:19:55;;;;;;;19.25;4.00;;;16.40;99.90;;;;;;5042731;28;25176;-60
2022/06/19 11:22:37;;;;;;;22.20;3.78;;;16.20;99.90;;;;;;5057227;28;25071;-59
2022/06/19 11:25:21;;;;;;;11.10;3.53;;;16.40;99.90;;;;;;5036229;28;25075;-59
2022/06/19 11:27:52;;;;;;;13.88;3.25;;;16.10;99.90;;;;;;5059199;28;25065;-58
2022/06/19 11:30:28;;;;;;;10.13;3.38;;;15.90;99.90;;;;;;5054756;28;25103;-59
2022/06/19 11:32:55;;;;;;;15.00;4.05;;;16.20;99.90;;;;;;5040877;28;25051;-57
2022/06/19 11:35:22;;;;;;;11.38;3.10;;;16.00;99.90;;;;;;5054613;28;25078;-59
2022/06/19 11:37:55;;;;;;;14.15;4.72;;;16.70;99.90;;;;;;5060714;28;25054;-59
2022/06/19 11:40:29;;;;;;;14.13;3.38;;;17.00;99.90;;;;;;5058497;28;25066;-58
2022/06/19 11:43:00;;;;;;;15.35;3.70;;;17.10;99.90;;;;;;5056435;28;25076;-58
2022/06/19 11:45:36;;;;;;;12.60;3.40;;;17.10;99.90;;;;;;5054517;28;25057;-59
2022/06/19 11:48:03;;;;;;;10.05;3.10;;;16.50;99.90;;;;;;5061859;28;25152;-59
2022/06/19 11:50:32;;;;;;;11.30;3.63;;;16.50;99.90;;;;;;5055949;28;25083;-58
2022/06/19 11:53:08;;;;;;;9.95;2.67;;;16.40;99.90;;;;;;5059915;28;25077;-58
2022/06/19 11:56:06;;;;;;;9.32;2.80;;;16.60;99.90;;;;;;5059105;28;25052;-59
2022/06/19 11:58:38;;;;;;;10.55;2.65;;;16.60;99.90;;;;;;5043682;28;25067;-58
2022/06/19 12:01:08;;;;;;;8.32;2.40;;;16.90;99.90;;;;;;5065484;28;25125;-60
2022/06/19 12:03:49;;;;;;;12.75;2.58;;;16.80;99.90;;;;;;5046452;28;25054;-59
2022/06/19 12:06:18;;;;;;;8.98;2.45;;;17.00;99.90;;;;;;5061984;28;25125;-59
2022/06/19 12:09:00;;;;;;;10.38;2.90;;;16.70;99.90;;;;;;5064829;28;25110;-60
2022/06/19 12:11:58;;;;;;;9.05;2.92;;;16.90;99.90;;;;;;5046915;28;25061;-60
2022/06/19 12:14:32;;;;;;;6.53;2.42;;;17.20;99.90;;;;;;5022544;28;25074;-60
2022/06/19 12:17:25;;;;;;;8.88;2.03;;;17.30;99.90;;;;;;5058380;28;25097;-61
2022/06/19 12:19:59;;;;;;;8.98;2.45;;;17.10;99.90;;;;;;5060166;28;25121;-60
2022/06/19 12:22:35;;;;;;;10.20;3.05;;;16.90;99.90;;;;;;5060961;28;25084;-59
2022/06/19 12:25:15;;;;;;;5.28;2.50;;;16.70;99.90;;;;;;5055455;28;25227;-59
2022/06/19 12:27:48;;;;;;;6.75;2.15;;;17.00;99.90;;;;;;5060356;28;25101;-60
2022/06/19 12:30:38;;;;;;;4.82;2.30;;;17.40;99.90;;;;;;5054433;28;25113;-60
2022/06/19 12:33:12;;;;;;;6.57;2.25;;;17.70;99.90;;;;;;5056522;28;25059;-59
2022/06/19 12:35:43;;;;;;;7.50;2.20;;;17.40;99.90;;;;;;5071499;28;25066;-60
2022/06/19 12:38:15;;;;;;;12.40;2.83;;;17.20;99.90;;;;;;5075603;28;25096;-61
2022/06/19 12:40:56;;;;;;;8.30;2.30;;;17.40;99.90;;;;;;5064151;28;25069;-63
2022/06/19 12:43:59;;;;;;;8.30;2.42;;;17.60;99.90;;;;;;5057387;28;25080;-60
2022/06/19 12:46:40;;;;;;;10.85;2.95;;;17.50;99.90;;;;;;5058606;28;25067;-61
2022/06/19 12:49:11;;;;;;;7.47;2.50;;;17.20;99.90;;;;;;5060900;28;25068;-60
2022/06/19 12:51:50;;;;;;;11.23;2.63;;;17.20;99.90;;;;;;5064443;28;25110;-60
2022/06/19 12:54:28;;;;;;;8.50;2.45;;;17.20;99.90;;;;;;5063073;28;25088;-61
2022/06/19 12:57:11;;;;;;;8.45;2.90;;;17.20;99.90;;;;;;5057727;28;25059;-60
2022/06/19 13:00:07;;;;;;;6.20;2.20;;;17.20;99.90;;;;;;5053137;28;25121;-61
2022/06/19 13:03:11;;;;;;;10.95;2.58;;;17.10;99.90;;;;;;5063245;28;25086;-60
2022/06/19 13:05:52;;;;;;;7.55;2.10;;;16.90;99.90;;;;;;5064929;28;25047;-59
2022/06/19 13:08:23;;;;;;;9.13;2.45;;;16.80;99.90;;;;;;5054687;28;25051;-59
2022/06/19 13:11:16;;;;;;;5.25;1.35;;;16.90;99.90;;;;;;5053948;28;25063;-59